sensor_id;sensor_type;location;lat;lon;timestamp;P1;durP1;ratioP1;P2;durP2;ratioP2
19026;SDS011;9646;52.034;5.554;2022-11-25T00:01:05;15.77;;;2.83;;
19026;SDS011;9646;52.034;5.554;2022-11-25T00:03:32;11.52;;;2.88;;
19026;SDS011;9646;52.034;5.554;2022-11-25T00:06:08;14.68;;;3.03;;
19026;SDS011;9646;52.034;5.554;2022-11-25T00:08:35;11.02;;;2.70;;
19026;SDS011;9646;52.034;5.554;2022-11-25T00:11:02;10.68;;;2.80;;
19026;SDS011;9646;52.034;5.554;2022-11-25T00:13:29;12.07;;;2.75;;
19026;SDS011;9646;52.034;5.554;2022-11-25T00:15:59;7.40;;;2.38;;
19026;SDS011;9646;52.034;5.554;2022-11-25T00:18:27;8.80;;;2.63;;
19026;SDS011;9646;52.034;5.554;2022-11-25T00:20:54;8.70;;;2.85;;
19026;SDS011;9646;52.034;5.554;2022-11-25T00:23:23;11.60;;;3.00;;
19026;SDS011;9646;52.034;5.554;2022-11-25T00:25:51;8.38;;;2.60;;
19026;SDS011;9646;52.034;5.554;2022-11-25T00:28:18;11.35;;;3.33;;
19026;SDS011;9646;52.034;5.554;2022-11-25T00:30:45;16.40;;;4.18;;
19026;SDS011;9646;52.034;5.554;2022-11-25T00:33:12;8.73;;;2.50;;
19026;SDS011;9646;52.034;5.554;2022-11-25T00:35:39;3.75;;;1.70;;
19026;SDS011;9646;52.034;5.554;2022-11-25T00:38:06;7.82;;;2.40;;
19026;SDS011;9646;52.034;5.554;2022-11-25T00:40:34;5.32;;;2.30;;
19026;SDS011;9646;52.034;5.554;2022-11-25T00:43:01;9.48;;;2.72;;
19026;SDS011;9646;52.034;5.554;2022-11-25T00:45:46;9.55;;;2.80;;
19026;SDS011;9646;52.034;5.554;2022-11-25T00:48:13;10.43;;;2.85;;
19026;SDS011;9646;52.034;5.554;2022-11-25T00:50:41;10.18;;;3.17;;
19026;SDS011;9646;52.034;5.554;2022-11-25T00:53:08;15.60;;;4.15;;
19026;SDS011;9646;52.034;5.554;2022-11-25T00:55:36;9.05;;;2.60;;
19026;SDS011;9646;52.034;5.554;2022-11-25T00:58:17;7.45;;;2.70;;
19026;SDS011;9646;52.034;5.554;2022-11-25T01:00:45;9.95;;;3.67;;
19026;SDS011;9646;52.034;5.554;2022-11-25T01:03:12;7.78;;;2.45;;
19026;SDS011;9646;52.034;5.554;2022-11-25T01:05:39;12.48;;;3.40;;
19026;SDS011;9646;52.034;5.554;2022-11-25T01:08:06;14.07;;;3.85;;
19026;SDS011;9646;52.034;5.554;2022-11-25T01:10:33;11.65;;;3.70;;
19026;SDS011;9646;52.034;5.554;2022-11-25T01:13:02;8.88;;;2.45;;
19026;SDS011;9646;52.034;5.554;2022-11-25T01:15:29;9.55;;;2.40;;
19026;SDS011;9646;52.034;5.554;2022-11-25T01:17:56;7.32;;;2.53;;
19026;SDS011;9646;52.034;5.554;2022-11-25T01:20:23;4.75;;;1.85;;
19026;SDS011;9646;52.034;5.554;2022-11-25T01:22:50;5.03;;;1.73;;
19026;SDS011;9646;52.034;5.554;2022-11-25T01:25:18;7.80;;;1.98;;
19026;SDS011;9646;52.034;5.554;2022-11-25T01:27:45;7.13;;;2.05;;
19026;SDS011;9646;52.034;5.554;2022-11-25T01:30:13;6.05;;;2.13;;
19026;SDS011;9646;52.034;5.554;2022-11-25T01:32:41;5.72;;;1.95;;
19026;SDS011;9646;52.034;5.554;2022-11-25T01:35:08;4.72;;;2.17;;
19026;SDS011;9646;52.034;5.554;2022-11-25T01:37:35;5.95;;;1.85;;
19026;SDS011;9646;52.034;5.554;2022-11-25T01:40:02;6.25;;;1.90;;
19026;SDS011;9646;52.034;5.554;2022-11-25T01:42:29;5.90;;;2.30;;
19026;SDS011;9646;52.034;5.554;2022-11-25T01:45:17;4.97;;;1.90;;
19026;SDS011;9646;52.034;5.554;2022-11-25T01:47:48;7.10;;;2.17;;
19026;SDS011;9646;52.034;5.554;2022-11-25T01:50:16;6.57;;;1.88;;
19026;SDS011;9646;52.034;5.554;2022-11-25T01:52:45;9.48;;;2.40;;
19026;SDS011;9646;52.034;5.554;2022-11-25T01:55:13;5.03;;;1.88;;
19026;SDS011;9646;52.034;5.554;2022-11-25T01:57:42;9.07;;;2.35;;
19026;SDS011;9646;52.034;5.554;2022-11-25T02:00:10;9.27;;;2.72;;
19026;SDS011;9646;52.034;5.554;2022-11-25T02:02:37;9.40;;;2.33;;
19026;SDS011;9646;52.034;5.554;2022-11-25T02:05:07;7.88;;;2.80;;
19026;SDS011;9646;52.034;5.554;2022-11-25T02:07:35;11.27;;;3.22;;
19026;SDS011;9646;52.034;5.554;2022-11-25T02:10:04;10.65;;;3.75;;
19026;SDS011;9646;52.034;5.554;2022-11-25T02:12:32;8.98;;;2.55;;
19026;SDS011;9646;52.034;5.554;2022-11-25T02:15:00;8.20;;;2.80;;
19026;SDS011;9646;52.034;5.554;2022-11-25T02:17:27;9.00;;;2.55;;
19026;SDS011;9646;52.034;5.554;2022-11-25T02:19:57;9.75;;;2.90;;
19026;SDS011;9646;52.034;5.554;2022-11-25T02:22:26;6.97;;;2.72;;
19026;SDS011;9646;52.034;5.554;2022-11-25T02:24:57;9.90;;;2.60;;
19026;SDS011;9646;52.034;5.554;2022-11-25T02:27:27;9.80;;;2.70;;
19026;SDS011;9646;52.034;5.554;2022-11-25T02:29:54;9.02;;;2.58;;
19026;SDS011;9646;52.034;5.554;2022-11-25T02:32:21;10.80;;;3.20;;
19026;SDS011;9646;52.034;5.554;2022-11-25T02:34:49;17.08;;;3.95;;
19026;SDS011;9646;52.034;5.554;2022-11-25T02:37:16;12.38;;;3.13;;
19026;SDS011;9646;52.034;5.554;2022-11-25T02:39:44;8.05;;;2.70;;
19026;SDS011;9646;52.034;5.554;2022-11-25T02:42:11;8.57;;;2.33;;
19026;SDS011;9646;52.034;5.554;2022-11-25T02:44:40;10.02;;;3.45;;
19026;SDS011;9646;52.034;5.554;2022-11-25T02:47:07;9.30;;;2.45;;
19026;SDS011;9646;52.034;5.554;2022-11-25T02:49:34;6.50;;;2.00;;
19026;SDS011;9646;52.034;5.554;2022-11-25T02:52:01;9.55;;;2.53;;
19026;SDS011;9646;52.034;5.554;2022-11-25T02:54:28;12.20;;;3.08;;
19026;SDS011;9646;52.034;5.554;2022-11-25T02:56:55;9.82;;;2.63;;
19026;SDS011;9646;52.034;5.554;2022-11-25T02:59:22;8.20;;;2.42;;
19026;SDS011;9646;52.034;5.554;2022-11-25T03:01:50;10.32;;;2.47;;
19026;SDS011;9646;52.034;5.554;2022-11-25T03:04:17;9.57;;;2.55;;
19026;SDS011;9646;52.034;5.554;2022-11-25T03:06:45;9.20;;;2.83;;
19026;SDS011;9646;52.034;5.554;2022-11-25T03:09:12;9.35;;;2.22;;
19026;SDS011;9646;52.034;5.554;2022-11-25T03:11:39;13.45;;;2.55;;
19026;SDS011;9646;52.034;5.554;2022-11-25T03:14:23;11.02;;;2.60;;
19026;SDS011;9646;52.034;5.554;2022-11-25T03:16:52;9.73;;;1.90;;
19026;SDS011;9646;52.034;5.554;2022-11-25T03:19:19;7.60;;;1.98;;
19026;SDS011;9646;52.034;5.554;2022-11-25T03:21:46;8.73;;;2.55;;
19026;SDS011;9646;52.034;5.554;2022-11-25T03:24:13;8.25;;;2.35;;
19026;SDS011;9646;52.034;5.554;2022-11-25T03:26:40;7.80;;;2.10;;
19026;SDS011;9646;52.034;5.554;2022-11-25T03:29:07;7.15;;;2.00;;
19026;SDS011;9646;52.034;5.554;2022-11-25T03:31:34;8.77;;;3.17;;
19026;SDS011;9646;52.034;5.554;2022-11-25T03:34:02;13.98;;;3.45;;
19026;SDS011;9646;52.034;5.554;2022-11-25T03:36:29;8.70;;;2.80;;
19026;SDS011;9646;52.034;5.554;2022-11-25T03:38:56;7.78;;;2.75;;
19026;SDS011;9646;52.034;5.554;2022-11-25T03:41:23;12.27;;;2.45;;
19026;SDS011;9646;52.034;5.554;2022-11-25T03:43:50;10.00;;;2.28;;
19026;SDS011;9646;52.034;5.554;2022-11-25T03:46:17;8.70;;;2.20;;
19026;SDS011;9646;52.034;5.554;2022-11-25T03:48:45;7.57;;;2.10;;
19026;SDS011;9646;52.034;5.554;2022-11-25T03:51:13;11.10;;;2.53;;
19026;SDS011;9646;52.034;5.554;2022-11-25T03:53:40;5.72;;;1.92;;
19026;SDS011;9646;52.034;5.554;2022-11-25T03:56:07;9.13;;;2.35;;
19026;SDS011;9646;52.034;5.554;2022-11-25T03:58:34;8.95;;;2.00;;
19026;SDS011;9646;52.034;5.554;2022-11-25T04:01:01;6.03;;;2.05;;
19026;SDS011;9646;52.034;5.554;2022-11-25T04:03:28;5.82;;;2.08;;
19026;SDS011;9646;52.034;5.554;2022-11-25T04:05:56;7.32;;;2.17;;
19026;SDS011;9646;52.034;5.554;2022-11-25T04:08:24;4.75;;;1.60;;
19026;SDS011;9646;52.034;5.554;2022-11-25T04:10:52;8.20;;;1.85;;
19026;SDS011;9646;52.034;5.554;2022-11-25T04:13:19;7.28;;;1.50;;
19026;SDS011;9646;52.034;5.554;2022-11-25T04:15:45;4.40;;;1.70;;
19026;SDS011;9646;52.034;5.554;2022-11-25T04:18:13;3.40;;;1.02;;
19026;SDS011;9646;52.034;5.554;2022-11-25T04:20:40;3.65;;;1.35;;
19026;SDS011;9646;52.034;5.554;2022-11-25T04:23:07;5.65;;;1.67;;
19026;SDS011;9646;52.034;5.554;2022-11-25T04:25:35;4.28;;;1.40;;
19026;SDS011;9646;52.034;5.554;2022-11-25T04:28:03;4.78;;;1.52;;
19026;SDS011;9646;52.034;5.554;2022-11-25T04:30:30;6.65;;;1.67;;
19026;SDS011;9646;52.034;5.554;2022-11-25T04:32:57;3.58;;;1.45;;
19026;SDS011;9646;52.034;5.554;2022-11-25T04:35:24;5.03;;;1.63;;
19026;SDS011;9646;52.034;5.554;2022-11-25T04:37:52;6.10;;;1.55;;
19026;SDS011;9646;52.034;5.554;2022-11-25T04:40:19;4.25;;;1.25;;
19026;SDS011;9646;52.034;5.554;2022-11-25T04:42:47;4.15;;;1.40;;
19026;SDS011;9646;52.034;5.554;2022-11-25T04:45:15;6.90;;;1.45;;
19026;SDS011;9646;52.034;5.554;2022-11-25T04:47:42;7.10;;;1.60;;
19026;SDS011;9646;52.034;5.554;2022-11-25T04:50:11;5.65;;;1.25;;
19026;SDS011;9646;52.034;5.554;2022-11-25T04:52:38;3.20;;;1.33;;
19026;SDS011;9646;52.034;5.554;2022-11-25T04:55:06;3.72;;;1.00;;
19026;SDS011;9646;52.034;5.554;2022-11-25T04:57:33;6.25;;;1.35;;
19026;SDS011;9646;52.034;5.554;2022-11-25T05:00:01;4.70;;;1.38;;
19026;SDS011;9646;52.034;5.554;2022-11-25T05:02:28;4.90;;;1.13;;
19026;SDS011;9646;52.034;5.554;2022-11-25T05:04:55;5.32;;;1.30;;
19026;SDS011;9646;52.034;5.554;2022-11-25T05:07:23;4.38;;;1.13;;
19026;SDS011;9646;52.034;5.554;2022-11-25T05:09:51;6.22;;;1.27;;
19026;SDS011;9646;52.034;5.554;2022-11-25T05:12:19;5.50;;;1.67;;
19026;SDS011;9646;52.034;5.554;2022-11-25T05:14:46;3.88;;;1.23;;
19026;SDS011;9646;52.034;5.554;2022-11-25T05:17:16;2.67;;;1.20;;
19026;SDS011;9646;52.034;5.554;2022-11-25T05:19:43;5.68;;;1.45;;
19026;SDS011;9646;52.034;5.554;2022-11-25T05:22:11;4.32;;;1.35;;
19026;SDS011;9646;52.034;5.554;2022-11-25T05:24:38;4.63;;;1.50;;
19026;SDS011;9646;52.034;5.554;2022-11-25T05:27:05;6.40;;;1.50;;
19026;SDS011;9646;52.034;5.554;2022-11-25T05:29:32;3.90;;;1.45;;
19026;SDS011;9646;52.034;5.554;2022-11-25T05:31:59;3.70;;;1.08;;
19026;SDS011;9646;52.034;5.554;2022-11-25T05:34:28;4.28;;;1.40;;
19026;SDS011;9646;52.034;5.554;2022-11-25T05:36:55;6.40;;;1.48;;
19026;SDS011;9646;52.034;5.554;2022-11-25T05:39:22;4.97;;;1.63;;
19026;SDS011;9646;52.034;5.554;2022-11-25T05:41:49;5.13;;;1.58;;
19026;SDS011;9646;52.034;5.554;2022-11-25T05:44:16;5.18;;;1.80;;
19026;SDS011;9646;52.034;5.554;2022-11-25T05:46:43;5.75;;;2.00;;
19026;SDS011;9646;52.034;5.554;2022-11-25T05:49:11;5.75;;;1.52;;
19026;SDS011;9646;52.034;5.554;2022-11-25T05:51:39;3.88;;;1.38;;
19026;SDS011;9646;52.034;5.554;2022-11-25T05:54:06;4.97;;;1.75;;
19026;SDS011;9646;52.034;5.554;2022-11-25T05:56:33;3.67;;;1.52;;
19026;SDS011;9646;52.034;5.554;2022-11-25T05:59:01;7.72;;;1.88;;
19026;SDS011;9646;52.034;5.554;2022-11-25T06:01:28;3.65;;;1.58;;
19026;SDS011;9646;52.034;5.554;2022-11-25T06:03:58;4.95;;;1.80;;
19026;SDS011;9646;52.034;5.554;2022-11-25T06:06:25;4.18;;;1.50;;
19026;SDS011;9646;52.034;5.554;2022-11-25T06:08:53;4.80;;;1.88;;
19026;SDS011;9646;52.034;5.554;2022-11-25T06:11:20;3.45;;;1.30;;
19026;SDS011;9646;52.034;5.554;2022-11-25T06:13:49;2.75;;;1.27;;
19026;SDS011;9646;52.034;5.554;2022-11-25T06:16:17;6.97;;;1.65;;
19026;SDS011;9646;52.034;5.554;2022-11-25T06:18:44;6.00;;;1.70;;
19026;SDS011;9646;52.034;5.554;2022-11-25T06:21:11;4.40;;;1.83;;
19026;SDS011;9646;52.034;5.554;2022-11-25T06:23:38;7.60;;;1.80;;
19026;SDS011;9646;52.034;5.554;2022-11-25T06:26:08;5.13;;;1.88;;
19026;SDS011;9646;52.034;5.554;2022-11-25T06:28:36;3.97;;;1.60;;
19026;SDS011;9646;52.034;5.554;2022-11-25T06:31:04;4.00;;;1.80;;
19026;SDS011;9646;52.034;5.554;2022-11-25T06:33:31;3.53;;;1.50;;
19026;SDS011;9646;52.034;5.554;2022-11-25T06:36:00;5.38;;;1.85;;
19026;SDS011;9646;52.034;5.554;2022-11-25T06:38:28;4.65;;;2.05;;
19026;SDS011;9646;52.034;5.554;2022-11-25T06:40:57;4.55;;;2.10;;
19026;SDS011;9646;52.034;5.554;2022-11-25T06:43:26;4.85;;;2.10;;
19026;SDS011;9646;52.034;5.554;2022-11-25T06:45:53;8.15;;;2.30;;
19026;SDS011;9646;52.034;5.554;2022-11-25T06:48:20;8.50;;;1.80;;
19026;SDS011;9646;52.034;5.554;2022-11-25T06:50:54;5.40;;;1.98;;
19026;SDS011;9646;52.034;5.554;2022-11-25T06:53:21;6.93;;;2.20;;
19026;SDS011;9646;52.034;5.554;2022-11-25T06:55:48;6.93;;;1.83;;
19026;SDS011;9646;52.034;5.554;2022-11-25T06:58:15;5.82;;;2.63;;
19026;SDS011;9646;52.034;5.554;2022-11-25T07:00:43;7.57;;;2.00;;
19026;SDS011;9646;52.034;5.554;2022-11-25T07:03:11;5.47;;;2.05;;
19026;SDS011;9646;52.034;5.554;2022-11-25T07:05:38;6.00;;;2.30;;
19026;SDS011;9646;52.034;5.554;2022-11-25T07:08:04;7.30;;;2.40;;
19026;SDS011;9646;52.034;5.554;2022-11-25T07:10:32;5.35;;;2.08;;
19026;SDS011;9646;52.034;5.554;2022-11-25T07:12:59;5.47;;;1.73;;
19026;SDS011;9646;52.034;5.554;2022-11-25T07:15:26;8.50;;;2.35;;
19026;SDS011;9646;52.034;5.554;2022-11-25T07:17:55;3.42;;;1.80;;
19026;SDS011;9646;52.034;5.554;2022-11-25T07:20:22;4.72;;;2.08;;
19026;SDS011;9646;52.034;5.554;2022-11-25T07:22:51;4.32;;;2.00;;
19026;SDS011;9646;52.034;5.554;2022-11-25T07:25:18;5.68;;;2.22;;
19026;SDS011;9646;52.034;5.554;2022-11-25T07:27:45;5.20;;;1.88;;
19026;SDS011;9646;52.034;5.554;2022-11-25T07:30:12;5.67;;;2.10;;
19026;SDS011;9646;52.034;5.554;2022-11-25T07:32:40;5.30;;;1.95;;
19026;SDS011;9646;52.034;5.554;2022-11-25T07:35:08;5.95;;;1.98;;
19026;SDS011;9646;52.034;5.554;2022-11-25T07:37:35;3.53;;;1.77;;
19026;SDS011;9646;52.034;5.554;2022-11-25T07:40:02;5.35;;;1.75;;
19026;SDS011;9646;52.034;5.554;2022-11-25T07:42:30;6.72;;;2.30;;
19026;SDS011;9646;52.034;5.554;2022-11-25T07:44:57;6.30;;;1.67;;
19026;SDS011;9646;52.034;5.554;2022-11-25T07:47:24;6.47;;;1.90;;
19026;SDS011;9646;52.034;5.554;2022-11-25T07:49:51;4.22;;;1.67;;
19026;SDS011;9646;52.034;5.554;2022-11-25T07:52:19;3.13;;;1.65;;
19026;SDS011;9646;52.034;5.554;2022-11-25T07:54:46;5.60;;;1.92;;
19026;SDS011;9646;52.034;5.554;2022-11-25T07:57:13;7.97;;;2.42;;
19026;SDS011;9646;52.034;5.554;2022-11-25T07:59:40;4.65;;;1.85;;
19026;SDS011;9646;52.034;5.554;2022-11-25T08:02:08;5.63;;;1.80;;
19026;SDS011;9646;52.034;5.554;2022-11-25T08:04:35;7.28;;;2.20;;
19026;SDS011;9646;52.034;5.554;2022-11-25T08:07:02;8.50;;;1.80;;
19026;SDS011;9646;52.034;5.554;2022-11-25T08:09:31;9.25;;;2.28;;
19026;SDS011;9646;52.034;5.554;2022-11-25T08:11:58;4.82;;;2.20;;
19026;SDS011;9646;52.034;5.554;2022-11-25T08:14:25;5.72;;;2.00;;
19026;SDS011;9646;52.034;5.554;2022-11-25T08:16:52;4.68;;;1.70;;
19026;SDS011;9646;52.034;5.554;2022-11-25T08:19:19;6.50;;;1.92;;
19026;SDS011;9646;52.034;5.554;2022-11-25T08:21:46;9.02;;;2.20;;
19026;SDS011;9646;52.034;5.554;2022-11-25T08:24:14;5.50;;;1.70;;
19026;SDS011;9646;52.034;5.554;2022-11-25T08:26:43;3.25;;;1.60;;
19026;SDS011;9646;52.034;5.554;2022-11-25T08:29:11;6.65;;;2.30;;
19026;SDS011;9646;52.034;5.554;2022-11-25T08:31:39;5.72;;;2.38;;
19026;SDS011;9646;52.034;5.554;2022-11-25T08:34:07;5.45;;;2.00;;
19026;SDS011;9646;52.034;5.554;2022-11-25T08:36:35;6.85;;;2.10;;
19026;SDS011;9646;52.034;5.554;2022-11-25T08:39:04;6.50;;;2.45;;
19026;SDS011;9646;52.034;5.554;2022-11-25T08:41:32;4.90;;;1.98;;
19026;SDS011;9646;52.034;5.554;2022-11-25T08:44:01;3.38;;;2.13;;
19026;SDS011;9646;52.034;5.554;2022-11-25T08:46:30;6.20;;;2.40;;
19026;SDS011;9646;52.034;5.554;2022-11-25T08:49:00;6.68;;;2.50;;
19026;SDS011;9646;52.034;5.554;2022-11-25T08:51:28;6.13;;;2.35;;
19026;SDS011;9646;52.034;5.554;2022-11-25T08:53:55;4.32;;;2.15;;
19026;SDS011;9646;52.034;5.554;2022-11-25T08:56:24;6.03;;;1.88;;
19026;SDS011;9646;52.034;5.554;2022-11-25T08:58:51;6.40;;;2.17;;
19026;SDS011;9646;52.034;5.554;2022-11-25T09:01:20;6.40;;;2.13;;
19026;SDS011;9646;52.034;5.554;2022-11-25T09:03:49;6.93;;;2.35;;
19026;SDS011;9646;52.034;5.554;2022-11-25T09:06:17;5.88;;;2.28;;
19026;SDS011;9646;52.034;5.554;2022-11-25T09:08:44;8.18;;;2.92;;
19026;SDS011;9646;52.034;5.554;2022-11-25T09:11:11;4.75;;;1.92;;
19026;SDS011;9646;52.034;5.554;2022-11-25T09:13:39;7.47;;;2.38;;
19026;SDS011;9646;52.034;5.554;2022-11-25T09:16:06;4.38;;;2.35;;
19026;SDS011;9646;52.034;5.554;2022-11-25T09:18:35;3.80;;;1.73;;
19026;SDS011;9646;52.034;5.554;2022-11-25T09:21:06;7.25;;;2.38;;
19026;SDS011;9646;52.034;5.554;2022-11-25T09:23:33;7.07;;;2.60;;
19026;SDS011;9646;52.034;5.554;2022-11-25T09:26:01;5.20;;;2.20;;
19026;SDS011;9646;52.034;5.554;2022-11-25T09:28:28;5.30;;;2.80;;
19026;SDS011;9646;52.034;5.554;2022-11-25T09:30:55;6.28;;;2.00;;
19026;SDS011;9646;52.034;5.554;2022-11-25T09:33:22;5.85;;;1.95;;
19026;SDS011;9646;52.034;5.554;2022-11-25T09:35:50;6.07;;;2.50;;
19026;SDS011;9646;52.034;5.554;2022-11-25T09:38:19;8.48;;;2.50;;
19026;SDS011;9646;52.034;5.554;2022-11-25T09:40:48;9.43;;;2.80;;
19026;SDS011;9646;52.034;5.554;2022-11-25T09:43:19;6.50;;;2.83;;
19026;SDS011;9646;52.034;5.554;2022-11-25T09:46:11;6.53;;;2.47;;
19026;SDS011;9646;52.034;5.554;2022-11-25T09:48:59;8.57;;;2.65;;
19026;SDS011;9646;52.034;5.554;2022-11-25T09:51:31;6.68;;;2.33;;
19026;SDS011;9646;52.034;5.554;2022-11-25T09:54:02;8.82;;;3.17;;
19026;SDS011;9646;52.034;5.554;2022-11-25T09:56:36;6.88;;;2.78;;
19026;SDS011;9646;52.034;5.554;2022-11-25T09:59:09;6.18;;;2.42;;
19026;SDS011;9646;52.034;5.554;2022-11-25T10:01:39;7.40;;;3.08;;
19026;SDS011;9646;52.034;5.554;2022-11-25T10:04:10;7.30;;;2.75;;
19026;SDS011;9646;52.034;5.554;2022-11-25T10:06:42;11.40;;;3.72;;
19026;SDS011;9646;52.034;5.554;2022-11-25T10:09:12;9.18;;;3.88;;
19026;SDS011;9646;52.034;5.554;2022-11-25T10:11:43;9.45;;;3.70;;
19026;SDS011;9646;52.034;5.554;2022-11-25T10:14:14;10.02;;;4.35;;
19026;SDS011;9646;52.034;5.554;2022-11-25T10:16:45;8.20;;;3.63;;
19026;SDS011;9646;52.034;5.554;2022-11-25T10:19:18;6.97;;;3.65;;
19026;SDS011;9646;52.034;5.554;2022-11-25T10:21:49;8.40;;;3.33;;
19026;SDS011;9646;52.034;5.554;2022-11-25T10:24:16;8.10;;;3.40;;
19026;SDS011;9646;52.034;5.554;2022-11-25T10:26:47;8.38;;;3.17;;
19026;SDS011;9646;52.034;5.554;2022-11-25T10:29:19;9.48;;;4.35;;
19026;SDS011;9646;52.034;5.554;2022-11-25T10:31:47;10.93;;;3.50;;
19026;SDS011;9646;52.034;5.554;2022-11-25T10:34:17;7.65;;;3.92;;
19026;SDS011;9646;52.034;5.554;2022-11-25T10:36:46;11.15;;;3.78;;
19026;SDS011;9646;52.034;5.554;2022-11-25T10:39:16;8.32;;;3.67;;
19026;SDS011;9646;52.034;5.554;2022-11-25T10:41:50;10.52;;;3.90;;
19026;SDS011;9646;52.034;5.554;2022-11-25T10:44:19;7.43;;;3.40;;
19026;SDS011;9646;52.034;5.554;2022-11-25T10:46:51;8.32;;;3.42;;
19026;SDS011;9646;52.034;5.554;2022-11-25T10:49:24;8.73;;;3.70;;
19026;SDS011;9646;52.034;5.554;2022-11-25T10:51:52;9.70;;;3.97;;
19026;SDS011;9646;52.034;5.554;2022-11-25T10:54:23;12.20;;;4.47;;
19026;SDS011;9646;52.034;5.554;2022-11-25T10:56:51;7.90;;;3.25;;
19026;SDS011;9646;52.034;5.554;2022-11-25T10:59:23;9.77;;;3.67;;
19026;SDS011;9646;52.034;5.554;2022-11-25T11:01:50;9.00;;;3.80;;
19026;SDS011;9646;52.034;5.554;2022-11-25T11:04:18;9.48;;;3.35;;
19026;SDS011;9646;52.034;5.554;2022-11-25T11:06:46;10.90;;;3.67;;
19026;SDS011;9646;52.034;5.554;2022-11-25T11:09:31;13.93;;;4.30;;
19026;SDS011;9646;52.034;5.554;2022-11-25T11:12:06;9.23;;;3.78;;
19026;SDS011;9646;52.034;5.554;2022-11-25T11:14:38;7.70;;;3.67;;
19026;SDS011;9646;52.034;5.554;2022-11-25T11:17:05;12.02;;;3.55;;
19026;SDS011;9646;52.034;5.554;2022-11-25T11:19:32;10.57;;;3.70;;
19026;SDS011;9646;52.034;5.554;2022-11-25T11:22:12;8.43;;;3.10;;
19026;SDS011;9646;52.034;5.554;2022-11-25T11:24:41;8.55;;;3.20;;
19026;SDS011;9646;52.034;5.554;2022-11-25T11:27:13;8.23;;;3.28;;
19026;SDS011;9646;52.034;5.554;2022-11-25T11:29:42;11.45;;;3.42;;
19026;SDS011;9646;52.034;5.554;2022-11-25T11:32:18;8.40;;;3.35;;
19026;SDS011;9646;52.034;5.554;2022-11-25T11:34:49;8.75;;;3.83;;
19026;SDS011;9646;52.034;5.554;2022-11-25T11:37:24;9.52;;;3.53;;
19026;SDS011;9646;52.034;5.554;2022-11-25T11:40:08;6.97;;;3.15;;
19026;SDS011;9646;52.034;5.554;2022-11-25T11:42:42;10.93;;;3.67;;
19026;SDS011;9646;52.034;5.554;2022-11-25T11:45:14;9.57;;;3.58;;
19026;SDS011;9646;52.034;5.554;2022-11-25T11:47:48;11.57;;;3.50;;
19026;SDS011;9646;52.034;5.554;2022-11-25T11:50:21;9.70;;;3.30;;
19026;SDS011;9646;52.034;5.554;2022-11-25T11:52:51;7.90;;;2.85;;
19026;SDS011;9646;52.034;5.554;2022-11-25T11:55:27;15.45;;;3.35;;
19026;SDS011;9646;52.034;5.554;2022-11-25T11:57:59;9.45;;;3.60;;
19026;SDS011;9646;52.034;5.554;2022-11-25T12:00:29;7.78;;;3.03;;
19026;SDS011;9646;52.034;5.554;2022-11-25T12:02:58;10.05;;;3.45;;
19026;SDS011;9646;52.034;5.554;2022-11-25T12:05:27;11.35;;;3.60;;
19026;SDS011;9646;52.034;5.554;2022-11-25T12:08:00;12.00;;;3.25;;
19026;SDS011;9646;52.034;5.554;2022-11-25T12:10:32;11.98;;;3.72;;
19026;SDS011;9646;52.034;5.554;2022-11-25T12:13:04;8.50;;;2.70;;
19026;SDS011;9646;52.034;5.554;2022-11-25T12:15:36;18.10;;;3.80;;
19026;SDS011;9646;52.034;5.554;2022-11-25T12:18:08;8.77;;;2.92;;
19026;SDS011;9646;52.034;5.554;2022-11-25T12:20:40;10.07;;;3.28;;
19026;SDS011;9646;52.034;5.554;2022-11-25T12:23:12;9.70;;;3.40;;
19026;SDS011;9646;52.034;5.554;2022-11-25T12:25:42;13.75;;;3.40;;
19026;SDS011;9646;52.034;5.554;2022-11-25T12:28:11;8.55;;;2.83;;
19026;SDS011;9646;52.034;5.554;2022-11-25T12:30:43;7.80;;;2.65;;
19026;SDS011;9646;52.034;5.554;2022-11-25T12:33:13;10.23;;;3.30;;
19026;SDS011;9646;52.034;5.554;2022-11-25T12:35:44;9.00;;;3.17;;
19026;SDS011;9646;52.034;5.554;2022-11-25T12:38:15;8.90;;;2.95;;
19026;SDS011;9646;52.034;5.554;2022-11-25T12:40:47;13.20;;;2.97;;
19026;SDS011;9646;52.034;5.554;2022-11-25T12:43:19;9.68;;;3.35;;
19026;SDS011;9646;52.034;5.554;2022-11-25T12:45:50;9.65;;;2.80;;
19026;SDS011;9646;52.034;5.554;2022-11-25T12:48:21;14.95;;;3.17;;
19026;SDS011;9646;52.034;5.554;2022-11-25T12:50:51;13.52;;;3.25;;
19026;SDS011;9646;52.034;5.554;2022-11-25T12:53:19;10.23;;;2.70;;
19026;SDS011;9646;52.034;5.554;2022-11-25T12:55:51;10.85;;;2.67;;
19026;SDS011;9646;52.034;5.554;2022-11-25T12:58:23;11.77;;;2.97;;
19026;SDS011;9646;52.034;5.554;2022-11-25T13:00:58;13.65;;;2.60;;
19026;SDS011;9646;52.034;5.554;2022-11-25T13:03:46;17.05;;;2.75;;
19026;SDS011;9646;52.034;5.554;2022-11-25T13:09:07;12.00;;;2.88;;
19026;SDS011;9646;52.034;5.554;2022-11-25T13:11:52;12.25;;;2.50;;
19026;SDS011;9646;52.034;5.554;2022-11-25T13:14:24;13.55;;;3.17;;
19026;SDS011;9646;52.034;5.554;2022-11-25T13:16:52;18.50;;;3.55;;
19026;SDS011;9646;52.034;5.554;2022-11-25T13:19:21;18.25;;;3.58;;
19026;SDS011;9646;52.034;5.554;2022-11-25T13:21:58;13.32;;;3.00;;
19026;SDS011;9646;52.034;5.554;2022-11-25T13:24:27;13.80;;;3.35;;
19026;SDS011;9646;52.034;5.554;2022-11-25T13:26:57;12.35;;;2.75;;
19026;SDS011;9646;52.034;5.554;2022-11-25T13:32:29;9.82;;;2.90;;
19026;SDS011;9646;52.034;5.554;2022-11-25T13:37:42;15.43;;;3.08;;
19026;SDS011;9646;52.034;5.554;2022-11-25T13:40:18;8.95;;;2.50;;
19026;SDS011;9646;52.034;5.554;2022-11-25T13:42:47;10.63;;;2.65;;
19026;SDS011;9646;52.034;5.554;2022-11-25T13:45:23;12.57;;;2.90;;
19026;SDS011;9646;52.034;5.554;2022-11-25T13:47:51;11.90;;;2.72;;
19026;SDS011;9646;52.034;5.554;2022-11-25T13:50:19;17.02;;;3.03;;
19026;SDS011;9646;52.034;5.554;2022-11-25T13:52:48;8.55;;;2.15;;
19026;SDS011;9646;52.034;5.554;2022-11-25T13:55:22;10.07;;;2.45;;
19026;SDS011;9646;52.034;5.554;2022-11-25T13:58:01;9.52;;;2.53;;
19026;SDS011;9646;52.034;5.554;2022-11-25T14:00:42;13.98;;;4.10;;
19026;SDS011;9646;52.034;5.554;2022-11-25T14:05:59;10.07;;;3.20;;
19026;SDS011;9646;52.034;5.554;2022-11-25T14:08:31;6.90;;;2.75;;
19026;SDS011;9646;52.034;5.554;2022-11-25T14:11:16;11.07;;;3.90;;
19026;SDS011;9646;52.034;5.554;2022-11-25T14:13:55;17.40;;;3.42;;
19026;SDS011;9646;52.034;5.554;2022-11-25T14:16:37;12.75;;;3.03;;
19026;SDS011;9646;52.034;5.554;2022-11-25T14:19:14;11.05;;;2.70;;
19026;SDS011;9646;52.034;5.554;2022-11-25T14:21:59;11.77;;;2.70;;
19026;SDS011;9646;52.034;5.554;2022-11-25T14:24:28;11.05;;;2.45;;
19026;SDS011;9646;52.034;5.554;2022-11-25T14:26:57;12.60;;;2.90;;
19026;SDS011;9646;52.034;5.554;2022-11-25T14:29:28;16.40;;;3.03;;
19026;SDS011;9646;52.034;5.554;2022-11-25T14:31:57;14.40;;;3.17;;
19026;SDS011;9646;52.034;5.554;2022-11-25T14:34:26;17.52;;;3.38;;
19026;SDS011;9646;52.034;5.554;2022-11-25T14:36:55;16.42;;;3.83;;
19026;SDS011;9646;52.034;5.554;2022-11-25T14:39:26;12.88;;;4.95;;
19026;SDS011;9646;52.034;5.554;2022-11-25T14:41:57;15.13;;;3.78;;
19026;SDS011;9646;52.034;5.554;2022-11-25T14:44:26;13.02;;;4.07;;
19026;SDS011;9646;52.034;5.554;2022-11-25T14:46:56;13.20;;;3.38;;
19026;SDS011;9646;52.034;5.554;2022-11-25T14:49:23;13.23;;;3.30;;
19026;SDS011;9646;52.034;5.554;2022-11-25T14:51:50;10.88;;;2.90;;
19026;SDS011;9646;52.034;5.554;2022-11-25T14:54:18;14.55;;;3.20;;
19026;SDS011;9646;52.034;5.554;2022-11-25T14:56:45;12.95;;;3.22;;
19026;SDS011;9646;52.034;5.554;2022-11-25T14:59:13;13.20;;;3.58;;
19026;SDS011;9646;52.034;5.554;2022-11-25T15:01:49;11.63;;;3.05;;
19026;SDS011;9646;52.034;5.554;2022-11-25T15:04:20;10.43;;;3.10;;
19026;SDS011;9646;52.034;5.554;2022-11-25T15:06:48;11.75;;;2.95;;
19026;SDS011;9646;52.034;5.554;2022-11-25T15:09:17;17.27;;;3.45;;
19026;SDS011;9646;52.034;5.554;2022-11-25T15:11:44;14.55;;;3.22;;
19026;SDS011;9646;52.034;5.554;2022-11-25T15:14:13;15.63;;;3.63;;
19026;SDS011;9646;52.034;5.554;2022-11-25T15:16:42;8.23;;;2.50;;
19026;SDS011;9646;52.034;5.554;2022-11-25T15:19:13;8.43;;;2.50;;
19026;SDS011;9646;52.034;5.554;2022-11-25T15:21:43;10.32;;;3.05;;